Time;durP1;ratioP1;P1;durP2;ratioP2;P2;SDS_P1;SDS_P2;PMS_P1;PMS_P2;Temp;Humidity;BMP_temperature;BMP_pressure;BME280_temperature;BME280_humidity;BME280_pressure;Samples;Min_cycle;Max_cycle;Signal;HPM_P1;HPM_P2
2022/07/27 00:01:03;;;;;;;;;2.00;2.00;;;;;25.55;46.90;98279.63;4974646;28;102192;-76
2022/07/27 00:03:30;;;;;;;;;1.67;1.67;;;;;25.51;46.88;98273.84;4972840;28;104373;-75
2022/07/27 00:05:57;;;;;;;;;2.67;2.67;;;;;25.51;47.08;98287.69;4977304;28;104205;-75
2022/07/27 00:08:25;;;;;;;;;3.00;2.33;;;;;25.49;46.90;98276.09;4942392;28;104250;-76
2022/07/27 00:10:52;;;;;;;;;2.00;2.00;;;;;25.51;46.82;98279.38;4950826;28;102276;-76
2022/07/27 00:13:19;;;;;;;;;1.33;1.33;;;;;25.48;47.00;98280.00;4957878;28;104256;-76
2022/07/27 00:15:46;;;;;;;;;3.00;1.67;;;;;25.48;46.81;98280.00;4957663;28;102447;-75
2022/07/27 00:18:13;;;;;;;;;2.33;2.00;;;;;25.48;47.04;98274.47;4974236;28;102720;-76
2022/07/27 00:20:41;;;;;;;;;2.00;2.00;;;;;25.48;46.82;98280.00;4979355;28;102618;-76
2022/07/27 00:23:08;;;;;;;;;1.00;1.00;;;;;25.47;46.87;98278.34;4958008;28;104402;-75
2022/07/27 00:25:36;;;;;;;;;1.67;1.67;;;;;25.50;46.87;98277.72;4969248;28;102280;-75
2022/07/27 00:28:03;;;;;;;;;1.33;1.33;;;;;25.48;46.79;98277.22;4976042;28;102437;-75
2022/07/27 00:30:30;;;;;;;;;2.67;2.67;;;;;25.49;46.75;98278.03;4977223;28;102514;-76
2022/07/27 00:32:58;;;;;;;;;1.00;1.00;;;;;25.50;46.90;98283.28;4975077;28;104150;-75
2022/07/27 00:35:25;;;;;;;;;2.00;1.00;;;;;25.50;46.77;98277.72;4964185;28;102382;-76
2022/07/27 00:37:52;;;;;;;;;3.00;3.00;;;;;25.51;46.77;98279.38;4970734;28;110531;-76
2022/07/27 00:40:19;;;;;;;;;2.00;2.00;;;;;25.48;46.81;98285.53;4967820;28;102937;-76
2022/07/27 00:42:47;;;;;;;;;1.33;1.33;;;;;25.48;46.84;98284.72;4948701;28;104725;-76
2022/07/27 00:45:14;;;;;;;;;2.00;2.00;;;;;25.46;46.83;98284.19;4971767;28;102510;-76
2022/07/27 00:47:41;;;;;;;;;1.00;1.00;;;;;25.44;46.76;98283.69;4967298;28;102070;-76
2022/07/27 00:50:08;;;;;;;;;2.67;2.00;;;;;25.44;46.91;98289.22;4973478;28;104019;-76
2022/07/27 00:52:36;;;;;;;;;2.00;2.00;;;;;25.42;46.75;98289.50;4955518;28;104174;-76
2022/07/27 00:55:04;;;;;;;;;0.33;0.33;;;;;25.42;47.07;98289.50;4954644;28;102037;-76
2022/07/27 00:57:31;;;;;;;;;1.33;1.33;;;;;25.42;47.05;98291.47;4962244;28;102398;-75
2022/07/27 01:00:18;;;;;;;;;1.00;1.00;;;;;25.44;46.90;98284.47;4973180;28;102170;-76
2022/07/27 01:02:47;;;;;;;;;1.00;1.00;;;;;25.45;46.82;98294.44;4963490;28;104121;-76
2022/07/27 01:05:14;;;;;;;;;2.00;1.67;;;;;25.45;46.79;98294.44;4937840;28;103541;-76
2022/07/27 01:07:42;;;;;;;;;2.00;2.00;;;;;25.45;46.82;98299.97;4973230;28;102668;-76
2022/07/27 01:10:09;;;;;;;;;1.00;1.00;;;;;25.44;47.00;98294.75;4940312;28;103961;-75
2022/07/27 01:12:37;;;;;;;;;3.00;3.00;;;;;25.44;46.94;98300.28;4961225;28;104044;-76
2022/07/27 01:15:06;;;;;;;;;2.33;1.33;;;;;25.42;46.94;98295.06;4967165;28;102171;-76
2022/07/27 01:17:33;;;;;;;;;2.00;2.00;;;;;25.42;47.00;98297.81;4959244;28;109026;-75
2022/07/27 01:20:00;;;;;;;;;3.00;3.00;;;;;25.41;47.18;98296.16;4964318;28;102271;-75
2022/07/27 01:22:40;;;;;;;;;2.00;2.00;;;;;25.40;46.85;98294.53;4956365;28;104412;-76
2022/07/27 01:25:12;;;;;;;;;2.00;2.00;;;;;25.38;47.07;98299.56;4963896;28;102538;-76
2022/07/27 01:27:39;;;;;;;;;1.00;0.33;;;;;25.39;47.07;98311.47;4949178;28;102260;-76
2022/07/27 01:30:25;;;;;;;;;2.00;2.00;;;;;25.36;46.88;98304.56;4979088;28;102700;-75
2022/07/27 01:33:00;;;;;;;;;2.00;2.00;;;;;25.37;47.04;98311.75;4920178;28;104235;-76
2022/07/27 01:35:28;;;;;;;;;1.67;1.67;;;;;25.38;47.08;98307.88;4960364;28;102837;-75
2022/07/27 01:37:55;;;;;;;;;2.00;2.00;;;;;25.38;47.00;98305.09;4936213;28;102561;-76
2022/07/27 01:40:22;;;;;;;;;0.00;0.00;;;;;25.38;46.83;98305.09;4975735;28;102531;-76
2022/07/27 01:42:50;;;;;;;;;2.33;2.00;;;;;25.39;46.86;98297.63;4953209;28;104081;-76
2022/07/27 01:45:17;;;;;;;;;1.00;1.00;;;;;25.40;46.89;98311.13;4968189;28;102147;-76
2022/07/27 01:47:44;;;;;;;;;3.33;3.00;;;;;25.38;46.96;98307.03;4977954;28;102638;-76
2022/07/27 01:50:11;;;;;;;;;1.00;1.00;;;;;25.37;46.91;98308.97;4971578;28;102226;-76
2022/07/27 01:52:38;;;;;;;;;1.67;1.67;;;;;25.39;46.80;98309.50;4977750;28;105500;-76
2022/07/27 01:55:07;;;;;;;;;2.00;2.00;;;;;25.39;46.77;98312.28;4969637;28;102138;-75
2022/07/27 01:57:34;;;;;;;;;1.67;1.67;;;;;25.37;46.82;98299.84;4953636;28;102284;-75
2022/07/27 02:00:04;;;;;;;;;2.00;2.00;;;;;25.35;47.05;98305.72;4958516;28;103962;-75
2022/07/27 02:02:31;;;;;;;;;2.00;2.00;;;;;25.36;46.81;98298.19;4976342;28;104039;-75
2022/07/27 02:04:58;;;;;;;;;4.00;4.00;;;;;25.33;46.94;98300.47;4971040;28;104395;-75
2022/07/27 02:07:26;;;;;;;;;2.00;2.00;;;;;25.31;47.00;98290.81;4980495;28;102349;-76
2022/07/27 02:09:53;;;;;;;;;2.00;2.00;;;;;25.32;46.87;98286.94;4966880;28;102319;-76
2022/07/27 02:12:35;;;;;;;;;2.00;2.00;;;;;25.31;47.08;98296.34;4950801;28;104102;-76
2022/07/27 02:15:12;;;;;;;;;1.00;1.00;;;;;25.30;47.11;98297.50;4978982;28;102407;-75
2022/07/27 02:17:44;;;;;;;;;2.33;2.00;;;;;25.29;47.08;98295.84;4965301;28;102355;-75
2022/07/27 02:20:13;;;;;;;;;1.00;1.00;;;;;25.31;46.94;98301.88;4955346;28;102342;-76
2022/07/27 02:22:40;;;;;;;;;1.67;1.67;;;;;25.31;46.89;98307.41;4946904;28;104080;-75
2022/07/27 02:25:08;;;;;;;;;1.67;1.67;;;;;25.30;46.83;98294.72;4961134;28;102439;-76
2022/07/27 02:27:35;;;;;;;;;1.33;1.33;;;;;25.30;47.00;98303.03;4963701;28;102542;-75
2022/07/27 02:30:03;;;;;;;;;1.00;1.00;;;;;25.31;47.11;98307.41;4975800;28;102654;-75
2022/07/27 02:32:30;;;;;;;;;1.67;1.67;;;;;25.31;47.04;98318.50;4967609;28;104247;-76
2022/07/27 02:34:57;;;;;;;;;1.67;1.67;;;;;25.29;46.86;98304.16;4976116;28;102156;-76
2022/07/27 02:37:25;;;;;;;;;1.00;1.00;;;;;25.30;46.87;98314.09;4968790;28;102483;-76
2022/07/27 02:39:52;;;;;;;;;1.00;0.67;;;;;25.27;46.83;98312.75;4971902;28;102561;-76
2022/07/27 02:42:19;;;;;;;;;1.00;1.00;;;;;25.29;46.99;98310.50;4975112;28;104016;-76
2022/07/27 02:44:46;;;;;;;;;1.33;1.33;;;;;25.25;47.06;98312.25;4984015;28;102157;-76
2022/07/27 02:47:13;;;;;;;;;2.00;2.00;;;;;25.25;47.13;98315.00;4970651;28;102409;-76
2022/07/27 02:49:40;;;;;;;;;1.00;1.00;;;;;25.24;47.30;98318.06;4939894;28;102337;-76
2022/07/27 02:52:07;;;;;;;;;1.33;1.33;;;;;25.24;47.05;98329.16;4965727;28;104367;-76
2022/07/27 02:54:34;;;;;;;;;2.00;2.00;;;;;25.24;47.24;98315.31;4969809;28;102367;-76
2022/07/27 02:57:01;;;;;;;;;2.00;2.00;;;;;25.24;47.08;98323.63;4981619;28;102242;-76
2022/07/27 02:59:28;;;;;;;;;2.00;2.00;;;;;25.25;47.21;98331.63;4977143;28;102143;-76
2022/07/27 03:01:56;;;;;;;;;2.00;2.00;;;;;25.24;47.07;98329.16;4973436;28;108840;-76
2022/07/27 03:04:23;;;;;;;;;2.00;2.00;;;;;25.20;47.17;98317.88;4975337;28;102177;-76
2022/07/27 03:06:50;;;;;;;;;2.00;2.00;;;;;25.22;47.19;98323.06;4972531;28;102707;-76
2022/07/27 03:09:17;;;;;;;;;2.67;2.00;;;;;25.22;47.01;98331.38;4986769;28;102090;-76
2022/07/27 03:11:54;;;;;;;;;2.00;2.00;;;;;25.23;47.14;98344.94;4978862;28;109142;-76
2022/07/27 03:14:22;;;;;;;;;2.67;2.67;;;;;25.22;47.19;98348.81;4970060;28;102225;-76
2022/07/27 03:16:49;;;;;;;;;1.33;1.33;;;;;25.22;47.09;98336.91;4979124;28;102066;-76
2022/07/27 03:19:16;;;;;;;;;0.33;0.33;;;;;25.21;47.33;98338.06;4958605;28;102500;-76
2022/07/27 03:21:43;;;;;;;;;2.33;1.33;;;;;25.19;46.97;98332.00;4983933;28;104472;-75
2022/07/27 03:24:10;;;;;;;;;1.67;1.67;;;;;25.20;47.15;98333.66;4980522;28;102149;-75
2022/07/27 03:26:37;;;;;;;;;2.00;2.00;;;;;25.20;47.41;98339.19;4971954;28;102918;-76
2022/07/27 03:29:04;;;;;;;;;1.00;1.00;;;;;25.20;47.28;98339.19;4972529;28;102553;-76
2022/07/27 03:31:32;;;;;;;;;1.33;1.33;;;;;25.19;46.97;98337.53;4964091;28;103887;-76
2022/07/27 03:33:59;;;;;;;;;2.00;2.00;;;;;25.17;47.17;98342.56;4979972;28;105280;-76
2022/07/27 03:36:27;;;;;;;;;2.33;2.33;;;;;25.18;47.03;98341.41;4961796;28;102222;-76
2022/07/27 03:38:56;;;;;;;;;2.00;2.00;;;;;25.17;47.26;98346.13;4971206;28;102298;-76
2022/07/27 03:41:27;;;;;;;;;1.33;1.33;;;;;25.17;47.30;98348.88;4968548;28;108779;-76
2022/07/27 03:43:54;;;;;;;;;2.00;2.00;;;;;25.18;47.06;98346.94;4972369;28;102366;-76
2022/07/27 03:46:21;;;;;;;;;3.00;3.00;;;;;25.18;46.90;98349.72;4980987;28;102387;-76
2022/07/27 03:48:48;;;;;;;;;2.00;2.00;;;;;25.14;47.10;98337.59;4968330;28;103476;-76
2022/07/27 03:51:15;;;;;;;;;2.00;2.00;;;;;25.16;47.06;98336.19;4971272;28;104160;-76
2022/07/27 03:53:43;;;;;;;;;2.00;2.00;;;;;25.16;47.05;98335.38;4975681;28;102436;-76
2022/07/27 03:56:10;;;;;;;;;0.67;0.67;;;;;25.18;47.13;98341.41;4939184;28;103101;-76
2022/07/27 03:58:37;;;;;;;;;2.33;2.00;;;;;25.17;47.01;98337.81;4976435;28;102625;-76
2022/07/27 04:01:04;;;;;;;;;3.67;3.00;;;;;25.15;46.97;98334.56;4960883;28;104225;-75
2022/07/27 04:03:31;;;;;;;;;2.33;2.00;;;;;25.14;47.04;98335.66;4967296;28;102441;-76
2022/07/27 04:05:59;;;;;;;;;2.00;2.00;;;;;25.13;47.14;98342.31;4963536;28;102338;-76
2022/07/27 04:08:26;;;;;;;;;3.00;2.00;;;;;25.13;47.32;98338.72;4977508;28;102408;-76
2022/07/27 04:10:53;;;;;;;;;2.00;2.00;;;;;25.12;47.34;98342.63;4938485;28;104107;-76
2022/07/27 04:13:22;;;;;;;;;1.33;1.33;;;;;25.13;46.93;98347.84;4977006;28;102278;-76
2022/07/27 04:15:51;;;;;;;;;1.67;1.67;;;;;25.13;46.92;98334.03;4967126;28;102027;-76
2022/07/27 04:18:18;;;;;;;;;2.33;2.33;;;;;25.13;47.05;98335.97;4976957;28;102535;-76
2022/07/27 04:20:46;;;;;;;;;2.00;2.00;;;;;25.13;46.99;98339.56;4958051;28;104095;-75
2022/07/27 04:23:13;;;;;;;;;1.00;1.00;;;;;25.13;47.07;98333.19;4979687;28;102249;-75
2022/07/27 04:25:40;;;;;;;;;2.33;1.67;;;;;25.14;47.10;98329.31;4960806;28;103000;-76
2022/07/27 04:28:09;;;;;;;;;1.33;1.33;;;;;25.15;46.91;98336.50;4975116;28;108386;-75
2022/07/27 04:30:36;;;;;;;;;2.00;2.00;;;;;25.13;47.14;98335.97;4971313;28;104051;-75
2022/07/27 04:33:04;;;;;;;;;1.67;1.67;;;;;25.13;47.02;98342.31;4950665;28;102482;-76
2022/07/27 04:38:06;;;;;;;;;1.00;1.00;;;;;25.10;47.08;98342.09;4992149;22;102773;-96
2022/07/27 04:40:33;;;;;;;;;1.67;1.67;;;;;25.14;46.93;98345.91;4871932;28;104856;-96
2022/07/27 04:43:02;;;;;;;;;1.00;1.00;;;;;25.14;46.58;98345.91;4860321;28;102282;-95
2022/07/27 04:45:29;;;;;;;;;3.00;2.00;;;;;25.11;46.83;98349.28;4866955;28;102583;-95
2022/07/27 04:47:56;;;;;;;;;1.33;0.33;;;;;25.14;46.65;98362.50;4835879;28;102346;-95
2022/07/27 04:50:23;;;;;;;;;2.00;2.00;;;;;25.09;46.71;98360.66;4832453;28;105685;-96
2022/07/27 04:52:50;;;;;;;;;1.00;1.00;;;;;25.12;46.73;98371.13;4875125;28;102678;-95
2022/07/27 04:55:17;;;;;;;;;1.33;1.33;;;;;25.11;46.60;98355.66;4815190;28;104029;-95
2022/07/27 04:57:45;;;;;;;;;2.67;2.00;;;;;25.14;46.84;98379.13;4844634;28;103215;-95
2022/07/27 05:00:13;;;;;;;;;1.33;1.33;;;;;25.12;46.78;98370.31;4858660;28;104638;-95
2022/07/27 05:02:40;;;;;;;;;1.00;1.00;;;;;25.10;46.80;98367.84;4871299;28;103204;-95
2022/07/27 05:05:08;;;;;;;;;2.00;2.00;;;;;25.13;46.72;98374.69;4885028;28;102237;-95
2022/07/27 05:07:35;;;;;;;;;1.67;1.67;;;;;25.11;46.57;98372.25;4842926;28;103228;-95
2022/07/27 05:10:03;;;;;;;;;1.33;1.33;;;;;25.11;46.70;98371.44;4857831;28;104269;-95
2022/07/27 05:12:30;;;;;;;;;1.33;1.33;;;;;25.11;46.61;98368.66;4856774;28;103926;-95
2022/07/27 05:14:57;;;;;;;;;1.33;1.33;;;;;25.12;46.31;98373.06;4875716;28;102434;-95
2022/07/27 05:17:24;;;;;;;;;1.33;1.33;;;;;25.11;46.89;98368.66;4863501;28;102771;-96
2022/07/27 05:19:52;;;;;;;;;2.67;2.00;;;;;25.09;46.38;98354.28;4852135;28;102928;-95
2022/07/27 05:22:19;;;;;;;;;3.00;2.33;;;;;25.09;46.48;98359.81;4837754;28;102281;-95
2022/07/27 05:24:46;;;;;;;;;2.33;2.00;;;;;25.08;46.44;98374.81;4810334;28;102704;-95
2022/07/27 05:27:13;;;;;;;;;1.00;1.00;;;;;25.05;46.44;98378.16;4824324;28;102664;-94
2022/07/27 05:29:40;;;;;;;;;1.67;1.67;;;;;25.06;46.63;98371.50;4841840;28;104039;-94
2022/07/27 05:32:08;;;;;;;;;1.33;1.33;;;;;25.06;46.46;98366.78;4840784;28;102730;-95
2022/07/27 05:34:35;;;;;;;;;2.33;2.00;;;;;25.07;46.49;98371.22;4872508;28;102949;-94
2022/07/27 05:37:02;;;;;;;;;2.00;2.00;;;;;25.08;46.47;98380.34;4845459;28;102974;-95
2022/07/27 05:39:30;;;;;;;;;2.00;2.00;;;;;25.06;46.64;98374.28;4834269;28;103981;-95
2022/07/27 05:41:57;;;;;;;;;2.00;1.67;;;;;25.07;46.37;98378.69;4871395;28;102617;-95
2022/07/27 05:44:24;;;;;;;;;1.00;1.00;;;;;25.08;46.27;98375.59;4853657;28;104486;-94
2022/07/27 05:46:55;;;;;;;;;1.00;0.00;;;;;25.10;46.35;98380.84;4841868;28;102163;-95
2022/07/27 05:49:22;;;;;;;;;1.00;1.00;;;;;25.10;46.36;98378.06;4801709;28;103726;-94
2022/07/27 05:51:50;;;;;;;;;2.33;2.00;;;;;25.12;46.42;98378.63;4841019;28;108925;-94
2022/07/27 05:54:18;;;;;;;;;2.00;2.00;;;;;25.11;46.03;98369.50;4874964;28;102248;-95
2022/07/27 05:56:45;;;;;;;;;1.33;1.33;;;;;25.14;46.00;98377.19;4862607;28;102131;-94
2022/07/27 05:59:12;;;;;;;;;2.00;2.00;;;;;25.13;46.25;98375.53;4859094;28;105001;-94
2022/07/27 06:01:39;;;;;;;;;2.00;1.33;;;;;25.13;46.05;98385.78;4839078;28;102664;-95
2022/07/27 06:04:06;;;;;;;;;1.33;1.33;;;;;25.14;45.95;98374.41;4849496;28;102151;-94
2022/07/27 06:09:19;;;;;;;;;2.33;2.00;;;;;25.17;46.13;98389.59;4854640;28;104005;-95
2022/07/27 06:11:46;;;;;;;;;1.33;1.33;;;;;25.15;45.94;98400.97;4830216;28;102852;-94
2022/07/27 06:14:13;;;;;;;;;1.00;1.00;;;;;25.16;46.11;98399.03;4867703;28;102622;-95
2022/07/27 06:16:40;;;;;;;;;2.00;1.33;;;;;25.19;46.05;98410.31;4853417;28;102388;-94
2022/07/27 06:19:07;;;;;;;;;1.00;1.00;;;;;25.22;46.35;98414.41;4866519;28;102731;-94
2022/07/27 06:21:35;;;;;;;;;2.00;1.00;;;;;25.22;46.05;98409.69;4852291;28;103136;-95
2022/07/27 06:24:02;;;;;;;;;1.33;1.33;;;;;25.27;45.98;98411.56;4858713;28;102435;-94
2022/07/27 06:26:29;;;;;;;;;2.67;2.67;;;;;25.28;46.13;98418.75;4855673;28;102661;-94
2022/07/27 06:28:57;;;;;;;;;2.00;2.00;;;;;25.27;46.02;98423.47;4839792;28;109074;-94
2022/07/27 06:31:25;;;;;;;;;0.67;0.67;;;;;25.27;45.76;98411.56;4825037;28;102730;-95
2022/07/27 06:33:56;;;;;;;;;0.33;0.33;;;;;25.29;46.00;98414.88;4856286;28;103891;-94
2022/07/27 06:36:27;;;;;;;;;3.67;2.67;;;;;25.28;46.09;98400.19;4813280;28;102701;-94
2022/07/27 06:38:54;;;;;;;;;0.67;0.67;;;;;25.32;45.71;98403.19;4865475;28;103927;-94
2022/07/27 06:41:21;;;;;;;;;1.00;1.00;;;;;25.30;45.73;98400.75;4851837;28;102330;-94
2022/07/27 06:43:48;;;;;;;;;1.00;1.00;;;;;25.32;45.88;98409.53;4841866;28;102278;-95
2022/07/27 06:46:15;;;;;;;;;1.67;1.67;;;;;25.33;45.81;98415.91;4872889;28;102655;-95
2022/07/27 06:48:44;;;;;;;;;1.67;1.67;;;;;25.33;45.56;98419.50;4870471;28;103628;-95
2022/07/27 06:51:11;;;;;;;;;1.00;1.00;;;;;25.36;46.04;98415.28;4851462;28;102892;-95
2022/07/27 06:53:38;;;;;;;;;1.33;1.33;;;;;25.35;45.71;98415.63;4848648;28;102381;-95
2022/07/27 06:56:07;;;;;;;;;1.00;1.00;;;;;25.35;45.95;98416.44;4851699;28;102801;-95
2022/07/27 06:58:36;;;;;;;;;2.00;1.00;;;;;25.35;45.80;98418.38;4850844;28;103640;-95
2022/07/27 07:01:03;;;;;;;;;1.33;1.33;;;;;25.37;45.77;98432.72;4851703;28;102665;-94
2022/07/27 07:03:30;;;;;;;;;1.00;1.00;;;;;25.36;46.16;98429.13;4840110;28;102428;-94
2022/07/27 07:05:58;;;;;;;;;1.00;1.00;;;;;25.38;45.80;98435.22;4861583;28;102148;-94
2022/07/27 07:08:25;;;;;;;;;1.33;1.33;;;;;25.35;45.77;98429.47;4841675;28;102864;-95
2022/07/27 07:10:52;;;;;;;;;1.33;1.33;;;;;25.37;46.27;98427.19;4880105;28;102434;-94
2022/07/27 07:13:19;;;;;;;;;0.33;0.33;;;;;25.38;45.74;98429.66;4835645;28;102435;-94
2022/07/27 07:15:47;;;;;;;;;1.00;1.00;;;;;25.37;45.64;98428.03;4839809;28;102757;-95
2022/07/27 07:18:17;;;;;;;;;1.67;1.67;;;;;25.35;45.96;98426.69;4838669;28;104064;-94
2022/07/27 07:20:44;;;;;;;;;1.00;1.00;;;;;25.38;45.91;98432.44;4836165;28;102494;-94
2022/07/27 07:23:12;;;;;;;;;1.00;1.00;;;;;25.38;46.00;98426.91;4833443;28;102254;-94
2022/07/27 07:25:39;;;;;;;;;1.00;1.00;;;;;25.36;45.84;98440.22;4869443;28;102504;-94
2022/07/27 07:28:07;;;;;;;;;2.00;2.00;;;;;25.36;45.66;98436.63;4848159;28;102821;-94
2022/07/27 07:30:34;;;;;;;;;1.33;1.33;;;;;25.37;45.93;98435.50;4867873;28;102751;-94
2022/07/27 07:33:01;;;;;;;;;0.33;0.33;;;;;25.37;45.75;98439.09;4851085;28;102213;-94
2022/07/27 07:35:28;;;;;;;;;2.00;2.00;;;;;25.38;45.71;98437.97;4849253;28;102711;-94
2022/07/27 07:37:55;;;;;;;;;1.33;1.33;;;;;25.37;45.96;98439.09;4879794;28;104032;-94
2022/07/27 07:40:22;;;;;;;;;0.33;0.33;;;;;25.37;45.84;98439.09;4871625;28;102619;-94
2022/07/27 07:43:10;;;;;;;;;1.33;1.33;;;;;25.38;45.78;98437.16;4866885;28;102791;-94
2022/07/27 07:45:37;;;;;;;;;1.33;0.67;;;;;25.39;45.85;98438.81;4871666;28;102186;-94
2022/07/27 07:48:19;;;;;;;;;1.00;1.00;;;;;25.37;45.63;98441.84;4859037;28;104456;-95
2022/07/27 07:50:47;;;;;;;;;2.67;1.67;;;;;25.39;45.83;98447.09;4862231;28;102783;-95
2022/07/27 07:53:21;;;;;;;;;1.33;0.67;;;;;25.40;45.59;98446.78;4854651;28;103440;-95
2022/07/27 07:55:51;;;;;;;;;1.00;1.00;;;;;25.39;45.58;98447.09;4862976;28;102599;-94
2022/07/27 07:58:18;;;;;;;;;1.00;1.00;;;;;25.39;45.90;98447.94;4862076;28;104947;-95
2022/07/27 08:00:45;;;;;;;;;1.00;1.00;;;;;25.40;45.73;98443.22;4869957;28;103255;-94
2022/07/27 08:03:13;;;;;;;;;2.00;2.00;;;;;25.38;45.77;98445.44;4874535;28;102078;-94
2022/07/27 08:05:40;;;;;;;;;2.00;2.00;;;;;25.39;46.01;98445.16;4838476;28;102571;-94
2022/07/27 08:08:07;;;;;;;;;2.00;1.67;;;;;25.37;45.62;98450.16;4848952;28;104224;-95
2022/07/27 08:10:37;;;;;;;;;1.00;1.00;;;;;25.39;45.86;98460.94;4850378;28;102703;-95
2022/07/27 08:13:04;;;;;;;;;2.00;2.00;;;;;25.40;45.82;98454.28;4866809;28;102636;-95
2022/07/27 08:15:31;;;;;;;;;2.00;2.00;;;;;25.38;45.86;98451.81;4889700;28;102246;-94
2022/07/27 08:18:03;;;;;;;;;1.33;1.33;;;;;25.40;45.91;98460.63;4874451;28;108451;-94
2022/07/27 08:20:30;;;;;;;;;1.33;1.33;;;;;25.41;45.69;98464.22;4891074;28;102514;-95
2022/07/27 08:22:57;;;;;;;;;2.00;2.00;;;;;25.40;45.61;98454.28;4879498;28;102609;-94
2022/07/27 08:25:24;;;;;;;;;2.00;1.00;;;;;25.41;45.59;98461.44;4877510;28;102279;-94
2022/07/27 08:27:51;;;;;;;;;1.00;1.00;;;;;25.39;45.62;98452.63;4891633;28;104272;-95
2022/07/27 08:30:21;;;;;;;;;2.00;2.00;;;;;25.39;45.85;98464.53;4875030;28;102580;-95
2022/07/27 08:32:53;;;;;;;;;1.00;1.00;;;;;25.39;45.84;98458.19;4876250;28;105080;-95
2022/07/27 08:35:21;;;;;;;;;2.00;2.00;;;;;25.39;45.76;98452.63;4882478;28;102745;-95
2022/07/27 08:37:48;;;;;;;;;1.00;1.00;;;;;25.40;45.91;98455.09;4837404;28;103970;-95
2022/07/27 08:40:15;;;;;;;;;2.00;2.00;;;;;25.40;45.84;98460.63;4846390;28;102435;-94
2022/07/27 08:43:03;;;;;;;;;0.67;0.67;;;;;25.42;45.81;98458.41;4867844;28;102686;-94
2022/07/27 08:45:31;;;;;;;;;1.00;1.00;;;;;25.40;46.17;98460.63;4860567;28;102211;-95
2022/07/27 08:47:58;;;;;;;;;1.33;1.33;;;;;25.42;45.74;98465.88;4840613;28;104064;-95
2022/07/27 08:50:27;;;;;;;;;2.00;1.33;;;;;25.38;45.71;98460.13;4841937;28;102494;-95
2022/07/27 08:53:08;;;;;;;;;2.00;2.00;;;;;25.39;45.59;98449.88;4867157;28;102137;-95
2022/07/27 08:55:37;;;;;;;;;0.00;0.00;;;;;25.42;45.81;98458.41;4851284;28;102300;-95
2022/07/27 08:58:05;;;;;;;;;1.00;1.00;;;;;25.42;45.63;98454.78;4851609;28;104263;-94
2022/07/27 09:00:33;;;;;;;;;1.33;1.33;;;;;25.42;45.63;98458.41;4857505;28;102420;-95
2022/07/27 09:03:00;;;;;;;;;1.00;1.00;;;;;25.42;45.79;98452.84;4863840;28;102626;-95
2022/07/27 09:05:27;;;;;;;;;2.00;2.00;;;;;25.42;45.73;98455.63;4852643;28;102691;-95
2022/07/27 09:08:10;;;;;;;;;2.33;2.33;;;;;25.44;45.63;98458.91;4854506;28;109137;-94
2022/07/27 09:10:37;;;;;;;;;1.67;1.67;;;;;25.45;45.65;98462.50;4870901;28;102620;-95
2022/07/27 09:13:17;;;;;;;;;2.00;2.00;;;;;25.44;45.64;98461.66;4873294;28;102554;-95
2022/07/27 09:15:46;;;;;;;;;2.00;2.00;;;;;25.43;45.58;98454.50;4869468;28;104297;-95
2022/07/27 09:18:36;;;;;;;;;2.00;2.00;;;;;25.43;45.89;98460.03;4860463;28;110003;-95
2022/07/27 09:21:20;;;;;;;;;1.33;1.00;;;;;25.46;45.62;98455.84;4879815;28;102646;-94
2022/07/27 09:23:54;;;;;;;;;2.00;2.00;;;;;25.46;45.54;98456.66;4865944;28;102143;-95
2022/07/27 09:26:26;;;;;;;;;2.00;2.00;;;;;25.43;45.82;98448.16;4876423;28;102084;-95
2022/07/27 09:29:13;;;;;;;;;1.00;1.00;;;;;25.46;45.74;98448.34;4845217;28;106855;-94
2022/07/27 09:31:45;;;;;;;;;2.00;2.00;;;;;25.45;45.60;98448.66;4862659;28;102277;-95
2022/07/27 09:34:12;;;;;;;;;1.33;1.33;;;;;25.44;45.70;98438.72;4854779;28;102338;-95
2022/07/27 09:36:54;;;;;;;;;2.00;2.00;;;;;25.44;45.47;98439.50;4857695;28;102397;-95
2022/07/27 09:39:46;;;;;;;;;3.00;3.00;;;;;25.46;45.71;98442.81;4883521;28;103259;-95
2022/07/27 09:42:15;;;;;;;;;0.67;0.67;;;;;25.45;45.80;98440.34;4887928;28;102557;-95
2022/07/27 09:45:02;;;;;;;;;2.00;2.00;;;;;25.46;45.81;98442.81;4893312;28;102727;-95
2022/07/27 09:47:29;;;;;;;;;1.33;1.33;;;;;25.48;45.75;98435.06;4896388;28;102789;-95
2022/07/27 09:50:16;;;;;;;;;1.00;1.00;;;;;25.47;45.46;98438.94;4911989;28;104644;-94
2022/07/27 09:52:43;;;;;;;;;1.67;1.00;;;;;25.45;45.57;98430.09;4886526;28;102334;-94
2022/07/27 09:55:18;;;;;;;;;2.33;1.67;;;;;25.48;45.29;98428.69;4866038;28;102284;-95
2022/07/27 09:57:56;;;;;;;;;1.67;1.67;;;;;25.49;45.72;98433.91;4885056;28;102455;-94
2022/07/27 10:00:24;;;;;;;;;2.00;2.00;;;;;25.45;45.63;98435.63;4895313;28;104237;-94
2022/07/27 10:02:52;;;;;;;;;2.00;2.00;;;;;25.47;45.64;98435.34;4872340;28;102278;-95
2022/07/27 10:05:20;;;;;;;;;2.33;2.33;;;;;25.48;45.65;98437.00;4874366;28;102238;-95
2022/07/27 10:07:48;;;;;;;;;1.00;1.00;;;;;25.47;45.62;98427.88;4893423;28;102410;-95
2022/07/27 10:10:15;;;;;;;;;2.00;2.00;;;;;25.49;45.43;98424.78;4873782;28;104168;-95
2022/07/27 10:12:43;;;;;;;;;2.33;1.67;;;;;25.49;45.55;98420.06;4902519;28;102434;-95
2022/07/27 10:15:15;;;;;;;;;2.00;2.00;;;;;25.49;45.78;98436.66;4888311;28;102213;-95
2022/07/27 10:17:42;;;;;;;;;2.00;1.67;;;;;25.48;45.76;98429.50;4869251;28;102130;-95
2022/07/27 10:20:10;;;;;;;;;0.33;0.33;;;;;25.48;45.41;98432.28;4849358;28;104090;-95
2022/07/27 10:22:59;;;;;;;;;1.00;1.00;;;;;25.51;45.54;98439.97;4891565;28;102204;-95
2022/07/27 10:25:27;;;;;;;;;2.00;2.00;;;;;25.51;45.47;98420.59;4908254;28;102500;-95
2022/07/27 10:28:16;;;;;;;;;2.00;1.00;;;;;25.53;45.64;98431.38;4893374;28;103163;-95
2022/07/27 10:30:43;;;;;;;;;1.00;1.00;;;;;25.49;45.39;98431.13;4876960;28;108930;-95
2022/07/27 10:33:41;;;;;;;;;1.67;1.67;;;;;25.52;45.38;98425.00;4878654;28;102290;-95
2022/07/27 10:36:23;;;;;;;;;1.00;1.00;;;;;25.49;45.43;98425.59;4906060;28;102430;-95
2022/07/27 10:38:56;;;;;;;;;1.33;1.33;;;;;25.53;45.58;98432.16;4858093;28;102240;-96
2022/07/27 10:41:28;;;;;;;;;1.00;1.00;;;;;25.52;45.38;98422.25;4894976;28;104008;-94
2022/07/27 10:44:22;;;;;;;;;2.00;2.00;;;;;25.55;45.57;98426.38;4891185;28;111055;-95
2022/07/27 10:46:54;;;;;;;;;1.00;1.00;;;;;25.53;45.36;98425.84;4903564;28;102074;-95
2022/07/27 10:49:26;;;;;;;;;2.67;1.33;;;;;25.53;45.40;98421.09;4882077;28;102461;-95
2022/07/27 10:51:54;;;;;;;;;1.00;1.00;;;;;25.53;45.44;98421.09;4869523;28;104123;-95
2022/07/27 10:54:33;;;;;;;;;1.00;1.00;;;;;25.56;45.61;98426.06;4875546;28;103123;-94
2022/07/27 10:57:01;;;;;;;;;1.00;1.00;;;;;25.53;45.56;98415.56;4913210;28;104911;-94
2022/07/27 10:59:38;;;;;;;;;1.67;1.67;;;;;25.58;45.53;98417.44;4909196;28;102757;-94
2022/07/27 11:02:51;;;;;;;;;1.00;1.00;;;;;25.57;45.41;98424.97;4892794;28;108194;-95
2022/07/27 11:05:18;;;;;;;;;1.00;1.00;;;;;25.54;45.79;98413.63;4873794;28;102767;-95
2022/07/27 11:08:05;;;;;;;;;1.00;1.00;;;;;25.57;45.65;98413.06;4892618;28;102593;-95
2022/07/27 11:10:52;;;;;;;;;1.00;1.00;;;;;25.58;45.39;98415.50;4878197;28;102845;-94
2022/07/27 11:13:21;;;;;;;;;1.00;1.00;;;;;25.60;45.55;98420.75;4862893;28;104206;-95
2022/07/27 11:15:57;;;;;;;;;1.67;1.67;;;;;25.60;45.45;98418.81;4864863;28;104693;-95
2022/07/27 11:18:54;;;;;;;;;2.00;2.00;;;;;25.57;45.48;98413.88;4907369;28;103381;-94
2022/07/27 11:21:35;;;;;;;;;0.67;0.67;;;;;25.59;45.55;98413.56;4887588;28;102454;-95
2022/07/27 11:24:09;;;;;;;;;2.00;2.00;;;;;25.61;45.37;98422.41;4876055;28;108354;-94
2022/07/27 11:26:48;;;;;;;;;2.00;2.00;;;;;25.60;45.29;98427.13;4892191;28;102189;-94
2022/07/27 11:29:16;;;;;;;;;0.00;0.00;;;;;25.62;45.58;98427.63;4871261;28;102234;-94
2022/07/27 11:31:45;;;;;;;;;2.00;1.00;;;;;25.59;45.28;98431.00;4876361;28;103600;-94
2022/07/27 11:34:29;;;;;;;;;1.67;1.67;;;;;25.59;45.31;98419.91;4896306;28;103958;-94
2022/07/27 11:37:12;;;;;;;;;3.00;2.00;;;;;25.62;45.33;98419.31;4878825;28;102568;-95
2022/07/27 11:39:42;;;;;;;;;1.33;1.33;;;;;25.62;45.44;98419.31;4860944;28;102959;-94
2022/07/27 11:42:36;;;;;;;;;1.00;1.00;;;;;25.62;45.54;98424.84;4886403;28;104131;-96